sensor_id;sensor_type;location;lat;lon;timestamp;P1;durP1;ratioP1;P2;durP2;ratioP2
18196;SDS011;9224;52.422;13.024;2022-11-14T00:00:06;58.95;;;39.30;;
18196;SDS011;9224;52.422;13.024;2022-11-14T00:02:35;57.72;;;39.47;;
18196;SDS011;9224;52.422;13.024;2022-11-14T00:05:03;60.20;;;39.90;;
18196;SDS011;9224;52.422;13.024;2022-11-14T00:07:32;57.45;;;39.13;;
18196;SDS011;9224;52.422;13.024;2022-11-14T00:09:59;57.05;;;38.47;;
18196;SDS011;9224;52.422;13.024;2022-11-14T00:12:26;59.72;;;39.45;;
18196;SDS011;9224;52.422;13.024;2022-11-14T00:14:52;59.97;;;39.25;;
18196;SDS011;9224;52.422;13.024;2022-11-14T00:17:20;60.97;;;40.22;;
18196;SDS011;9224;52.422;13.024;2022-11-14T00:19:46;58.90;;;39.35;;
18196;SDS011;9224;52.422;13.024;2022-11-14T00:22:14;58.45;;;39.63;;
18196;SDS011;9224;52.422;13.024;2022-11-14T00:24:41;61.60;;;40.33;;
18196;SDS011;9224;52.422;13.024;2022-11-14T00:27:07;61.10;;;41.27;;
18196;SDS011;9224;52.422;13.024;2022-11-14T00:29:34;63.83;;;41.00;;
18196;SDS011;9224;52.422;13.024;2022-11-14T00:32:01;67.72;;;42.13;;
18196;SDS011;9224;52.422;13.024;2022-11-14T00:34:27;60.38;;;40.53;;
18196;SDS011;9224;52.422;13.024;2022-11-14T00:36:54;65.25;;;42.80;;
18196;SDS011;9224;52.422;13.024;2022-11-14T00:39:22;62.97;;;41.50;;
18196;SDS011;9224;52.422;13.024;2022-11-14T00:41:49;66.88;;;42.17;;
18196;SDS011;9224;52.422;13.024;2022-11-14T00:44:16;67.97;;;41.92;;
18196;SDS011;9224;52.422;13.024;2022-11-14T00:46:42;67.07;;;42.35;;
18196;SDS011;9224;52.422;13.024;2022-11-14T00:49:09;61.90;;;40.35;;
18196;SDS011;9224;52.422;13.024;2022-11-14T00:51:36;66.40;;;41.78;;
18196;SDS011;9224;52.422;13.024;2022-11-14T00:54:02;71.23;;;43.03;;
18196;SDS011;9224;52.422;13.024;2022-11-14T00:56:31;69.63;;;43.40;;
18196;SDS011;9224;52.422;13.024;2022-11-14T00:58:57;66.15;;;41.42;;
18196;SDS011;9224;52.422;13.024;2022-11-14T01:01:24;65.18;;;40.72;;
18196;SDS011;9224;52.422;13.024;2022-11-14T01:03:51;67.78;;;42.80;;
18196;SDS011;9224;52.422;13.024;2022-11-14T01:06:17;64.70;;;41.83;;
18196;SDS011;9224;52.422;13.024;2022-11-14T01:08:45;66.47;;;41.40;;
18196;SDS011;9224;52.422;13.024;2022-11-14T01:11:14;65.90;;;41.30;;
18196;SDS011;9224;52.422;13.024;2022-11-14T01:13:42;70.50;;;43.05;;
18196;SDS011;9224;52.422;13.024;2022-11-14T01:16:09;69.65;;;42.45;;
18196;SDS011;9224;52.422;13.024;2022-11-14T01:18:37;70.60;;;42.77;;
18196;SDS011;9224;52.422;13.024;2022-11-14T01:21:05;68.05;;;42.33;;
18196;SDS011;9224;52.422;13.024;2022-11-14T01:23:32;69.72;;;42.85;;
18196;SDS011;9224;52.422;13.024;2022-11-14T01:26:00;72.40;;;43.73;;
18196;SDS011;9224;52.422;13.024;2022-11-14T01:28:27;68.32;;;41.92;;
18196;SDS011;9224;52.422;13.024;2022-11-14T01:30:55;66.03;;;42.00;;
18196;SDS011;9224;52.422;13.024;2022-11-14T01:33:21;64.30;;;41.15;;
18196;SDS011;9224;52.422;13.024;2022-11-14T01:35:48;69.70;;;42.92;;
18196;SDS011;9224;52.422;13.024;2022-11-14T01:38:15;67.60;;;42.33;;
18196;SDS011;9224;52.422;13.024;2022-11-14T01:40:41;69.70;;;41.83;;
18196;SDS011;9224;52.422;13.024;2022-11-14T01:45:56;68.80;;;43.20;;
18196;SDS011;9224;52.422;13.024;2022-11-14T01:48:25;72.30;;;41.78;;
18196;SDS011;9224;52.422;13.024;2022-11-14T01:50:57;71.03;;;42.42;;
18196;SDS011;9224;52.422;13.024;2022-11-14T01:53:26;70.18;;;44.15;;
18196;SDS011;9224;52.422;13.024;2022-11-14T01:55:53;73.32;;;42.63;;
18196;SDS011;9224;52.422;13.024;2022-11-14T01:58:21;69.45;;;42.13;;
18196;SDS011;9224;52.422;13.024;2022-11-14T02:00:48;70.28;;;43.30;;
18196;SDS011;9224;52.422;13.024;2022-11-14T02:03:16;68.63;;;42.67;;
18196;SDS011;9224;52.422;13.024;2022-11-14T02:05:43;66.45;;;42.40;;
18196;SDS011;9224;52.422;13.024;2022-11-14T02:08:12;70.53;;;43.27;;
18196;SDS011;9224;52.422;13.024;2022-11-14T02:10:39;76.65;;;43.70;;
18196;SDS011;9224;52.422;13.024;2022-11-14T02:13:06;74.47;;;43.65;;
18196;SDS011;9224;52.422;13.024;2022-11-14T02:15:32;77.18;;;45.13;;
18196;SDS011;9224;52.422;13.024;2022-11-14T02:18:00;78.10;;;46.08;;
18196;SDS011;9224;52.422;13.024;2022-11-14T02:20:29;78.40;;;45.47;;
18196;SDS011;9224;52.422;13.024;2022-11-14T02:22:58;73.97;;;42.65;;
18196;SDS011;9224;52.422;13.024;2022-11-14T02:25:25;83.93;;;45.58;;
18196;SDS011;9224;52.422;13.024;2022-11-14T02:27:52;75.30;;;45.00;;
18196;SDS011;9224;52.422;13.024;2022-11-14T02:30:20;84.07;;;45.92;;
18196;SDS011;9224;52.422;13.024;2022-11-14T02:32:47;84.90;;;45.67;;
18196;SDS011;9224;52.422;13.024;2022-11-14T02:35:14;80.03;;;45.65;;
18196;SDS011;9224;52.422;13.024;2022-11-14T02:37:42;79.25;;;45.13;;
18196;SDS011;9224;52.422;13.024;2022-11-14T02:40:09;78.93;;;44.50;;
18196;SDS011;9224;52.422;13.024;2022-11-14T02:42:36;84.15;;;44.75;;
18196;SDS011;9224;52.422;13.024;2022-11-14T02:45:03;84.55;;;45.53;;
18196;SDS011;9224;52.422;13.024;2022-11-14T02:47:30;78.80;;;44.13;;
18196;SDS011;9224;52.422;13.024;2022-11-14T02:49:56;83.97;;;45.78;;
18196;SDS011;9224;52.422;13.024;2022-11-14T02:52:23;74.65;;;43.40;;
18196;SDS011;9224;52.422;13.024;2022-11-14T02:54:51;79.00;;;44.85;;
18196;SDS011;9224;52.422;13.024;2022-11-14T02:57:17;82.35;;;43.88;;
18196;SDS011;9224;52.422;13.024;2022-11-14T02:59:44;81.57;;;44.83;;
18196;SDS011;9224;52.422;13.024;2022-11-14T03:02:10;77.43;;;44.07;;
18196;SDS011;9224;52.422;13.024;2022-11-14T03:04:38;75.35;;;42.75;;
18196;SDS011;9224;52.422;13.024;2022-11-14T03:07:04;76.10;;;42.13;;
18196;SDS011;9224;52.422;13.024;2022-11-14T03:09:31;75.93;;;43.55;;
18196;SDS011;9224;52.422;13.024;2022-11-14T03:11:59;74.63;;;43.65;;
18196;SDS011;9224;52.422;13.024;2022-11-14T03:14:26;81.05;;;43.78;;
18196;SDS011;9224;52.422;13.024;2022-11-14T03:16:53;81.65;;;43.95;;
18196;SDS011;9224;52.422;13.024;2022-11-14T03:19:20;77.18;;;43.97;;
18196;SDS011;9224;52.422;13.024;2022-11-14T03:21:46;75.05;;;43.00;;
18196;SDS011;9224;52.422;13.024;2022-11-14T03:24:13;82.45;;;45.10;;
18196;SDS011;9224;52.422;13.024;2022-11-14T03:26:40;78.20;;;43.55;;
18196;SDS011;9224;52.422;13.024;2022-11-14T03:29:08;76.22;;;43.58;;
18196;SDS011;9224;52.422;13.024;2022-11-14T03:31:34;74.73;;;43.60;;
18196;SDS011;9224;52.422;13.024;2022-11-14T03:34:01;76.50;;;43.67;;
18196;SDS011;9224;52.422;13.024;2022-11-14T03:36:28;75.38;;;43.75;;
18196;SDS011;9224;52.422;13.024;2022-11-14T03:38:54;77.32;;;43.33;;
18196;SDS011;9224;52.422;13.024;2022-11-14T03:41:21;75.35;;;42.47;;
18196;SDS011;9224;52.422;13.024;2022-11-14T03:43:47;77.88;;;43.90;;
18196;SDS011;9224;52.422;13.024;2022-11-14T03:46:15;71.80;;;42.45;;
18196;SDS011;9224;52.422;13.024;2022-11-14T03:48:42;76.93;;;43.92;;
18196;SDS011;9224;52.422;13.024;2022-11-14T03:51:09;77.53;;;44.08;;
18196;SDS011;9224;52.422;13.024;2022-11-14T03:53:35;76.27;;;42.97;;
18196;SDS011;9224;52.422;13.024;2022-11-14T03:56:02;74.55;;;42.92;;
18196;SDS011;9224;52.422;13.024;2022-11-14T03:58:47;78.63;;;43.90;;
18196;SDS011;9224;52.422;13.024;2022-11-14T04:01:34;75.63;;;42.85;;
18196;SDS011;9224;52.422;13.024;2022-11-14T04:04:19;73.70;;;42.33;;
18196;SDS011;9224;52.422;13.024;2022-11-14T04:06:46;71.55;;;43.80;;
18196;SDS011;9224;52.422;13.024;2022-11-14T04:09:12;73.05;;;42.35;;
18196;SDS011;9224;52.422;13.024;2022-11-14T04:11:39;76.55;;;44.63;;
18196;SDS011;9224;52.422;13.024;2022-11-14T04:14:06;74.88;;;42.92;;
18196;SDS011;9224;52.422;13.024;2022-11-14T04:16:34;75.75;;;42.58;;
18196;SDS011;9224;52.422;13.024;2022-11-14T04:19:00;75.87;;;43.47;;
18196;SDS011;9224;52.422;13.024;2022-11-14T04:21:27;70.70;;;41.40;;
18196;SDS011;9224;52.422;13.024;2022-11-14T04:23:53;71.13;;;41.72;;
18196;SDS011;9224;52.422;13.024;2022-11-14T04:26:20;71.65;;;41.30;;
18196;SDS011;9224;52.422;13.024;2022-11-14T04:28:46;73.32;;;42.78;;
18196;SDS011;9224;52.422;13.024;2022-11-14T04:31:13;70.82;;;41.15;;
18196;SDS011;9224;52.422;13.024;2022-11-14T04:33:41;69.37;;;40.47;;
18196;SDS011;9224;52.422;13.024;2022-11-14T04:36:08;73.35;;;41.40;;
18196;SDS011;9224;52.422;13.024;2022-11-14T04:38:34;67.82;;;40.97;;
18196;SDS011;9224;52.422;13.024;2022-11-14T04:41:03;69.50;;;40.92;;
18196;SDS011;9224;52.422;13.024;2022-11-14T04:43:30;71.60;;;41.58;;
18196;SDS011;9224;52.422;13.024;2022-11-14T04:45:56;75.10;;;41.72;;
18196;SDS011;9224;52.422;13.024;2022-11-14T04:48:23;71.35;;;41.88;;
18196;SDS011;9224;52.422;13.024;2022-11-14T04:50:51;74.03;;;41.30;;
18196;SDS011;9224;52.422;13.024;2022-11-14T04:53:17;73.90;;;41.20;;
18196;SDS011;9224;52.422;13.024;2022-11-14T04:55:44;67.30;;;40.65;;
18196;SDS011;9224;52.422;13.024;2022-11-14T04:58:11;71.80;;;40.92;;
18196;SDS011;9224;52.422;13.024;2022-11-14T05:00:38;74.38;;;40.85;;
18196;SDS011;9224;52.422;13.024;2022-11-14T05:03:04;74.18;;;40.78;;
18196;SDS011;9224;52.422;13.024;2022-11-14T05:05:31;76.40;;;41.78;;
18196;SDS011;9224;52.422;13.024;2022-11-14T05:07:59;75.65;;;42.08;;
18196;SDS011;9224;52.422;13.024;2022-11-14T05:10:25;72.55;;;41.50;;
18196;SDS011;9224;52.422;13.024;2022-11-14T05:12:52;76.00;;;41.13;;
18196;SDS011;9224;52.422;13.024;2022-11-14T05:15:19;74.32;;;41.30;;
18196;SDS011;9224;52.422;13.024;2022-11-14T05:17:46;71.38;;;40.95;;
18196;SDS011;9224;52.422;13.024;2022-11-14T05:20:13;77.72;;;41.80;;
18196;SDS011;9224;52.422;13.024;2022-11-14T05:22:39;73.93;;;41.25;;
18196;SDS011;9224;52.422;13.024;2022-11-14T05:25:08;80.47;;;42.03;;
18196;SDS011;9224;52.422;13.024;2022-11-14T05:27:35;75.85;;;41.58;;
18196;SDS011;9224;52.422;13.024;2022-11-14T05:30:01;81.47;;;42.22;;
18196;SDS011;9224;52.422;13.024;2022-11-14T05:32:28;75.63;;;42.20;;
18196;SDS011;9224;52.422;13.024;2022-11-14T05:34:55;76.57;;;41.42;;
18196;SDS011;9224;52.422;13.024;2022-11-14T05:37:21;80.90;;;42.08;;
18196;SDS011;9224;52.422;13.024;2022-11-14T05:39:48;79.20;;;40.88;;
18196;SDS011;9224;52.422;13.024;2022-11-14T05:42:16;80.80;;;42.07;;
18196;SDS011;9224;52.422;13.024;2022-11-14T05:44:43;81.47;;;43.13;;
18196;SDS011;9224;52.422;13.024;2022-11-14T05:47:09;79.32;;;41.55;;
18196;SDS011;9224;52.422;13.024;2022-11-14T05:49:36;82.50;;;42.33;;
18196;SDS011;9224;52.422;13.024;2022-11-14T05:52:02;78.85;;;41.10;;
18196;SDS011;9224;52.422;13.024;2022-11-14T05:54:29;79.00;;;42.53;;
18196;SDS011;9224;52.422;13.024;2022-11-14T05:56:56;83.70;;;42.60;;
18196;SDS011;9224;52.422;13.024;2022-11-14T05:59:24;82.20;;;43.00;;
18196;SDS011;9224;52.422;13.024;2022-11-14T06:01:51;85.57;;;42.88;;
18196;SDS011;9224;52.422;13.024;2022-11-14T06:04:18;88.43;;;43.90;;
18196;SDS011;9224;52.422;13.024;2022-11-14T06:06:44;83.00;;;42.10;;
18196;SDS011;9224;52.422;13.024;2022-11-14T06:09:11;84.40;;;41.47;;
18196;SDS011;9224;52.422;13.024;2022-11-14T06:11:38;88.53;;;43.08;;
18196;SDS011;9224;52.422;13.024;2022-11-14T06:14:04;87.40;;;42.40;;
18196;SDS011;9224;52.422;13.024;2022-11-14T06:16:32;93.65;;;43.65;;
18196;SDS011;9224;52.422;13.024;2022-11-14T06:18:59;85.13;;;42.28;;
18196;SDS011;9224;52.422;13.024;2022-11-14T06:21:25;83.97;;;41.75;;
18196;SDS011;9224;52.422;13.024;2022-11-14T06:23:52;88.82;;;43.20;;
18196;SDS011;9224;52.422;13.024;2022-11-14T06:26:19;74.20;;;34.87;;
18196;SDS011;9224;52.422;13.024;2022-11-14T06:28:47;69.20;;;33.90;;
18196;SDS011;9224;52.422;13.024;2022-11-14T06:31:14;74.40;;;33.97;;
18196;SDS011;9224;52.422;13.024;2022-11-14T06:33:43;69.23;;;31.67;;
18196;SDS011;9224;52.422;13.024;2022-11-14T06:36:09;75.27;;;31.87;;
18196;SDS011;9224;52.422;13.024;2022-11-14T06:38:37;78.93;;;32.23;;
18196;SDS011;9224;52.422;13.024;2022-11-14T06:41:04;81.20;;;33.50;;
18196;SDS011;9224;52.422;13.024;2022-11-14T06:43:32;75.80;;;33.00;;
18196;SDS011;9224;52.422;13.024;2022-11-14T06:45:59;81.70;;;33.10;;
18196;SDS011;9224;52.422;13.024;2022-11-14T06:48:26;86.67;;;33.87;;
18196;SDS011;9224;52.422;13.024;2022-11-14T06:50:55;76.97;;;33.13;;
18196;SDS011;9224;52.422;13.024;2022-11-14T06:53:23;85.50;;;34.90;;
18196;SDS011;9224;52.422;13.024;2022-11-14T06:55:56;81.53;;;33.30;;
18196;SDS011;9224;52.422;13.024;2022-11-14T06:58:24;80.60;;;31.93;;
18196;SDS011;9224;52.422;13.024;2022-11-14T07:00:51;84.43;;;34.27;;
18196;SDS011;9224;52.422;13.024;2022-11-14T07:03:18;75.23;;;32.60;;
18196;SDS011;9224;52.422;13.024;2022-11-14T07:05:45;77.63;;;34.97;;
18196;SDS011;9224;52.422;13.024;2022-11-14T07:08:13;85.90;;;34.67;;
18196;SDS011;9224;52.422;13.024;2022-11-14T07:10:39;89.23;;;34.13;;
18196;SDS011;9224;52.422;13.024;2022-11-14T07:13:07;87.73;;;33.57;;
18196;SDS011;9224;52.422;13.024;2022-11-14T07:15:35;81.63;;;33.20;;
18196;SDS011;9224;52.422;13.024;2022-11-14T07:18:02;86.60;;;34.27;;
18196;SDS011;9224;52.422;13.024;2022-11-14T07:20:29;74.93;;;32.60;;
18196;SDS011;9224;52.422;13.024;2022-11-14T07:22:55;77.10;;;34.33;;
18196;SDS011;9224;52.422;13.024;2022-11-14T07:25:23;81.80;;;34.67;;
18196;SDS011;9224;52.422;13.024;2022-11-14T07:27:50;78.63;;;33.70;;
18196;SDS011;9224;52.422;13.024;2022-11-14T07:30:16;85.00;;;32.37;;
18196;SDS011;9224;52.422;13.024;2022-11-14T07:32:43;80.87;;;33.40;;
18196;SDS011;9224;52.422;13.024;2022-11-14T07:35:10;73.17;;;33.87;;
18196;SDS011;9224;52.422;13.024;2022-11-14T07:37:36;90.37;;;34.53;;
18196;SDS011;9224;52.422;13.024;2022-11-14T07:40:03;85.10;;;34.10;;
18196;SDS011;9224;52.422;13.024;2022-11-14T07:42:31;74.73;;;34.50;;
18196;SDS011;9224;52.422;13.024;2022-11-14T07:44:58;68.90;;;32.87;;
18196;SDS011;9224;52.422;13.024;2022-11-14T07:47:25;78.07;;;33.33;;
18196;SDS011;9224;52.422;13.024;2022-11-14T07:49:52;77.03;;;34.83;;
18196;SDS011;9224;52.422;13.024;2022-11-14T07:52:18;78.17;;;33.47;;
18196;SDS011;9224;52.422;13.024;2022-11-14T07:54:45;71.37;;;32.07;;
18196;SDS011;9224;52.422;13.024;2022-11-14T07:57:11;76.67;;;33.67;;
18196;SDS011;9224;52.422;13.024;2022-11-14T07:59:39;69.93;;;32.17;;
18196;SDS011;9224;52.422;13.024;2022-11-14T08:02:07;75.13;;;32.30;;
18196;SDS011;9224;52.422;13.024;2022-11-14T08:04:37;64.90;;;31.57;;
18196;SDS011;9224;52.422;13.024;2022-11-14T08:07:03;66.97;;;32.07;;
18196;SDS011;9224;52.422;13.024;2022-11-14T08:09:30;63.43;;;32.47;;
18196;SDS011;9224;52.422;13.024;2022-11-14T08:11:56;65.47;;;30.33;;
18196;SDS011;9224;52.422;13.024;2022-11-14T08:14:23;66.27;;;31.00;;
18196;SDS011;9224;52.422;13.024;2022-11-14T08:16:51;69.20;;;31.87;;
18196;SDS011;9224;52.422;13.024;2022-11-14T08:19:18;66.03;;;31.40;;
18196;SDS011;9224;52.422;13.024;2022-11-14T08:21:44;68.70;;;32.30;;
18196;SDS011;9224;52.422;13.024;2022-11-14T08:24:11;59.77;;;28.77;;
18196;SDS011;9224;52.422;13.024;2022-11-14T08:26:37;69.03;;;30.80;;
18196;SDS011;9224;52.422;13.024;2022-11-14T08:29:04;63.60;;;31.37;;
18196;SDS011;9224;52.422;13.024;2022-11-14T08:31:31;73.23;;;31.93;;
18196;SDS011;9224;52.422;13.024;2022-11-14T08:33:59;64.17;;;31.57;;
18196;SDS011;9224;52.422;13.024;2022-11-14T08:36:25;61.77;;;29.00;;
18196;SDS011;9224;52.422;13.024;2022-11-14T08:38:52;55.33;;;30.73;;
18196;SDS011;9224;52.422;13.024;2022-11-14T08:41:19;56.20;;;29.00;;
18196;SDS011;9224;52.422;13.024;2022-11-14T08:43:45;61.80;;;30.07;;
18196;SDS011;9224;52.422;13.024;2022-11-14T08:46:12;59.27;;;29.83;;
18196;SDS011;9224;52.422;13.024;2022-11-14T08:48:38;51.60;;;27.40;;
18196;SDS011;9224;52.422;13.024;2022-11-14T08:51:06;54.03;;;29.63;;
18196;SDS011;9224;52.422;13.024;2022-11-14T08:53:33;54.90;;;29.50;;
18196;SDS011;9224;52.422;13.024;2022-11-14T08:56:00;52.07;;;27.20;;
18196;SDS011;9224;52.422;13.024;2022-11-14T08:58:27;52.77;;;27.90;;
18196;SDS011;9224;52.422;13.024;2022-11-14T09:00:58;54.40;;;28.80;;
18196;SDS011;9224;52.422;13.024;2022-11-14T09:03:25;52.90;;;27.87;;
18196;SDS011;9224;52.422;13.024;2022-11-14T09:05:52;53.97;;;28.50;;
18196;SDS011;9224;52.422;13.024;2022-11-14T09:08:20;55.23;;;27.87;;
18196;SDS011;9224;52.422;13.024;2022-11-14T09:10:47;49.40;;;26.67;;
18196;SDS011;9224;52.422;13.024;2022-11-14T09:13:14;52.73;;;28.30;;
18196;SDS011;9224;52.422;13.024;2022-11-14T09:15:40;53.27;;;28.43;;
18196;SDS011;9224;52.422;13.024;2022-11-14T09:18:07;58.70;;;29.30;;
18196;SDS011;9224;52.422;13.024;2022-11-14T09:20:34;52.33;;;28.63;;
18196;SDS011;9224;52.422;13.024;2022-11-14T09:23:01;52.70;;;27.83;;
18196;SDS011;9224;52.422;13.024;2022-11-14T09:25:29;57.97;;;28.47;;
18196;SDS011;9224;52.422;13.024;2022-11-14T09:27:56;51.93;;;28.43;;
18196;SDS011;9224;52.422;13.024;2022-11-14T09:30:22;54.47;;;28.27;;
18196;SDS011;9224;52.422;13.024;2022-11-14T09:32:49;52.73;;;28.70;;
18196;SDS011;9224;52.422;13.024;2022-11-14T09:35:16;56.07;;;29.47;;
18196;SDS011;9224;52.422;13.024;2022-11-14T09:37:42;55.83;;;28.53;;
18196;SDS011;9224;52.422;13.024;2022-11-14T09:40:09;56.37;;;28.87;;
18196;SDS011;9224;52.422;13.024;2022-11-14T09:42:43;51.10;;;27.83;;
18196;SDS011;9224;52.422;13.024;2022-11-14T09:45:22;53.80;;;27.73;;
18196;SDS011;9224;52.422;13.024;2022-11-14T09:47:49;46.87;;;26.47;;
18196;SDS011;9224;52.422;13.024;2022-11-14T09:50:19;48.10;;;26.20;;
18196;SDS011;9224;52.422;13.024;2022-11-14T09:52:48;48.63;;;25.83;;
18196;SDS011;9224;52.422;13.024;2022-11-14T09:55:18;49.40;;;27.53;;
18196;SDS011;9224;52.422;13.024;2022-11-14T09:57:48;52.00;;;27.40;;
18196;SDS011;9224;52.422;13.024;2022-11-14T10:00:15;48.73;;;28.03;;
18196;SDS011;9224;52.422;13.024;2022-11-14T10:02:47;53.80;;;27.17;;
18196;SDS011;9224;52.422;13.024;2022-11-14T10:08:22;48.13;;;27.03;;
18196;SDS011;9224;52.422;13.024;2022-11-14T10:10:56;49.93;;;27.03;;
18196;SDS011;9224;52.422;13.024;2022-11-14T10:13:32;43.87;;;24.97;;
18196;SDS011;9224;52.422;13.024;2022-11-14T10:16:06;49.47;;;27.83;;
18196;SDS011;9224;52.422;13.024;2022-11-14T10:18:40;48.07;;;26.07;;
18196;SDS011;9224;52.422;13.024;2022-11-14T10:21:16;43.67;;;25.60;;
18196;SDS011;9224;52.422;13.024;2022-11-14T10:23:54;40.40;;;25.47;;
18196;SDS011;9224;52.422;13.024;2022-11-14T10:26:25;41.67;;;24.77;;
18196;SDS011;9224;52.422;13.024;2022-11-14T10:29:06;40.73;;;24.50;;
18196;SDS011;9224;52.422;13.024;2022-11-14T10:31:51;38.30;;;22.80;;
18196;SDS011;9224;52.422;13.024;2022-11-14T10:34:22;37.83;;;23.67;;
18196;SDS011;9224;52.422;13.024;2022-11-14T10:36:55;41.83;;;25.30;;
18196;SDS011;9224;52.422;13.024;2022-11-14T10:39:28;38.53;;;23.53;;
18196;SDS011;9224;52.422;13.024;2022-11-14T10:41:58;36.50;;;22.63;;
18196;SDS011;9224;52.422;13.024;2022-11-14T10:44:31;39.93;;;22.40;;
18196;SDS011;9224;52.422;13.024;2022-11-14T10:47:01;37.43;;;22.90;;
18196;SDS011;9224;52.422;13.024;2022-11-14T10:49:30;36.50;;;22.37;;
18196;SDS011;9224;52.422;13.024;2022-11-14T10:52:00;36.47;;;21.67;;
18196;SDS011;9224;52.422;13.024;2022-11-14T10:54:31;36.00;;;21.80;;
18196;SDS011;9224;52.422;13.024;2022-11-14T10:57:00;38.63;;;22.60;;
18196;SDS011;9224;52.422;13.024;2022-11-14T10:59:26;37.60;;;22.37;;
18196;SDS011;9224;52.422;13.024;2022-11-14T11:01:55;38.83;;;22.03;;
18196;SDS011;9224;52.422;13.024;2022-11-14T11:04:26;31.10;;;19.73;;
18196;SDS011;9224;52.422;13.024;2022-11-14T11:06:56;32.00;;;20.73;;
18196;SDS011;9224;52.422;13.024;2022-11-14T11:09:24;37.67;;;23.43;;
18196;SDS011;9224;52.422;13.024;2022-11-14T11:12:13;34.20;;;21.43;;
18196;SDS011;9224;52.422;13.024;2022-11-14T11:14:41;32.53;;;20.50;;
18196;SDS011;9224;52.422;13.024;2022-11-14T11:17:20;31.87;;;20.60;;
18196;SDS011;9224;52.422;13.024;2022-11-14T11:19:48;29.67;;;20.50;;
18196;SDS011;9224;52.422;13.024;2022-11-14T11:22:26;31.83;;;21.20;;
18196;SDS011;9224;52.422;13.024;2022-11-14T11:24:56;33.50;;;20.33;;
18196;SDS011;9224;52.422;13.024;2022-11-14T11:27:23;26.80;;;18.30;;
18196;SDS011;9224;52.422;13.024;2022-11-14T11:30:08;31.23;;;20.23;;
18196;SDS011;9224;52.422;13.024;2022-11-14T11:32:44;31.33;;;19.43;;
18196;SDS011;9224;52.422;13.024;2022-11-14T11:35:11;30.17;;;19.93;;
18196;SDS011;9224;52.422;13.024;2022-11-14T11:37:41;30.40;;;20.47;;
18196;SDS011;9224;52.422;13.024;2022-11-14T11:40:12;29.13;;;19.23;;
18196;SDS011;9224;52.422;13.024;2022-11-14T11:42:41;33.53;;;19.40;;
18196;SDS011;9224;52.422;13.024;2022-11-14T11:45:12;35.17;;;21.43;;
18196;SDS011;9224;52.422;13.024;2022-11-14T11:47:41;29.63;;;19.37;;
18196;SDS011;9224;52.422;13.024;2022-11-14T11:50:13;30.10;;;20.57;;
18196;SDS011;9224;52.422;13.024;2022-11-14T11:52:44;33.83;;;20.53;;
18196;SDS011;9224;52.422;13.024;2022-11-14T11:55:13;33.37;;;20.57;;
18196;SDS011;9224;52.422;13.024;2022-11-14T11:57:42;30.33;;;19.67;;
18196;SDS011;9224;52.422;13.024;2022-11-14T12:00:13;30.57;;;19.83;;
18196;SDS011;9224;52.422;13.024;2022-11-14T12:02:41;30.60;;;19.57;;
18196;SDS011;9224;52.422;13.024;2022-11-14T12:05:12;26.33;;;18.53;;
18196;SDS011;9224;52.422;13.024;2022-11-14T12:07:42;28.43;;;19.47;;
18196;SDS011;9224;52.422;13.024;2022-11-14T12:10:13;30.80;;;19.53;;
18196;SDS011;9224;52.422;13.024;2022-11-14T12:15:33;32.03;;;20.23;;
18196;SDS011;9224;52.422;13.024;2022-11-14T12:18:16;29.63;;;19.67;;
18196;SDS011;9224;52.422;13.024;2022-11-14T12:21:06;25.53;;;18.83;;
18196;SDS011;9224;52.422;13.024;2022-11-14T12:26:26;31.53;;;19.37;;
18196;SDS011;9224;52.422;13.024;2022-11-14T12:29:07;27.77;;;19.00;;
18196;SDS011;9224;52.422;13.024;2022-11-14T12:31:41;28.20;;;19.63;;
18196;SDS011;9224;52.422;13.024;2022-11-14T12:34:12;28.67;;;19.93;;
18196;SDS011;9224;52.422;13.024;2022-11-14T12:36:43;29.57;;;18.93;;
18196;SDS011;9224;52.422;13.024;2022-11-14T12:39:19;28.20;;;19.33;;
18196;SDS011;9224;52.422;13.024;2022-11-14T12:41:46;28.33;;;19.47;;
18196;SDS011;9224;52.422;13.024;2022-11-14T12:44:17;30.13;;;19.50;;
18196;SDS011;9224;52.422;13.024;2022-11-14T12:49:56;27.93;;;19.47;;
18196;SDS011;9224;52.422;13.024;2022-11-14T12:52:44;26.57;;;17.33;;
18196;SDS011;9224;52.422;13.024;2022-11-14T12:58:17;27.30;;;17.90;;
18196;SDS011;9224;52.422;13.024;2022-11-14T13:00:57;22.30;;;17.03;;
18196;SDS011;9224;52.422;13.024;2022-11-14T13:03:36;25.93;;;17.83;;
18196;SDS011;9224;52.422;13.024;2022-11-14T13:06:09;24.53;;;16.97;;
18196;SDS011;9224;52.422;13.024;2022-11-14T13:11:47;22.40;;;15.80;;
18196;SDS011;9224;52.422;13.024;2022-11-14T13:14:46;21.40;;;16.37;;
18196;SDS011;9224;52.422;13.024;2022-11-14T13:17:33;20.00;;;15.37;;
18196;SDS011;9224;52.422;13.024;2022-11-14T13:20:24;22.57;;;16.90;;
18196;SDS011;9224;52.422;13.024;2022-11-14T13:38:34;20.53;;;16.20;;
18196;SDS011;9224;52.422;13.024;2022-11-14T13:41:56;21.93;;;15.83;;
18196;SDS011;9224;52.422;13.024;2022-11-14T13:44:33;21.50;;;16.17;;
18196;SDS011;9224;52.422;13.024;2022-11-14T13:47:25;20.57;;;15.57;;
18196;SDS011;9224;52.422;13.024;2022-11-14T13:50:01;20.70;;;16.00;;
18196;SDS011;9224;52.422;13.024;2022-11-14T13:52:33;23.43;;;16.40;;
18196;SDS011;9224;52.422;13.024;2022-11-14T13:55:00;20.73;;;15.90;;
18196;SDS011;9224;52.422;13.024;2022-11-14T13:57:31;20.40;;;16.03;;
18196;SDS011;9224;52.422;13.024;2022-11-14T14:00:09;21.13;;;15.30;;
18196;SDS011;9224;52.422;13.024;2022-11-14T14:02:43;19.27;;;16.03;;
18196;SDS011;9224;52.422;13.024;2022-11-14T14:05:27;18.83;;;15.77;;
18196;SDS011;9224;52.422;13.024;2022-11-14T14:08:02;19.67;;;15.73;;
18196;SDS011;9224;52.422;13.024;2022-11-14T14:10:40;19.77;;;15.53;;
18196;SDS011;9224;52.422;13.024;2022-11-14T14:13:13;21.97;;;15.97;;
18196;SDS011;9224;52.422;13.024;2022-11-14T14:15:48;27.37;;;16.47;;
18196;SDS011;9224;52.422;13.024;2022-11-14T14:18:22;21.13;;;15.20;;
18196;SDS011;9224;52.422;13.024;2022-11-14T14:20:53;21.87;;;16.40;;
18196;SDS011;9224;52.422;13.024;2022-11-14T14:23:30;22.10;;;17.13;;
18196;SDS011;9224;52.422;13.024;2022-11-14T14:26:02;21.33;;;16.63;;
18196;SDS011;9224;52.422;13.024;2022-11-14T14:28:38;21.87;;;16.90;;
18196;SDS011;9224;52.422;13.024;2022-11-14T14:31:13;18.57;;;15.37;;
18196;SDS011;9224;52.422;13.024;2022-11-14T14:33:41;19.33;;;15.63;;
18196;SDS011;9224;52.422;13.024;2022-11-14T14:36:18;20.53;;;15.43;;
18196;SDS011;9224;52.422;13.024;2022-11-14T14:38:48;25.17;;;17.50;;
18196;SDS011;9224;52.422;13.024;2022-11-14T14:41:15;18.73;;;15.37;;
18196;SDS011;9224;52.422;13.024;2022-11-14T14:43:48;21.53;;;16.00;;
18196;SDS011;9224;52.422;13.024;2022-11-14T14:46:23;21.23;;;16.63;;
18196;SDS011;9224;52.422;13.024;2022-11-14T14:48:51;22.03;;;16.13;;
18196;SDS011;9224;52.422;13.024;2022-11-14T14:51:27;21.13;;;15.40;;
18196;SDS011;9224;52.422;13.024;2022-11-14T14:53:56;23.43;;;16.60;;
18196;SDS011;9224;52.422;13.024;2022-11-14T14:56:23;21.57;;;16.50;;
18196;SDS011;9224;52.422;13.024;2022-11-14T14:58:49;18.73;;;15.37;;
18196;SDS011;9224;52.422;13.024;2022-11-14T15:01:16;21.17;;;16.60;;
18196;SDS011;9224;52.422;13.024;2022-11-14T15:03:45;20.47;;;15.43;;
18196;SDS011;9224;52.422;13.024;2022-11-14T15:06:19;19.53;;;15.47;;
18196;SDS011;9224;52.422;13.024;2022-11-14T15:08:54;19.60;;;14.80;;